Terminal Aerodrome Forecast
Issued by NWS

Home | Current Version | Previous Version | Text Only | Print | Product List | Glossary On
Versions: 1 2 3 4 5 6 7 8 9 10 11 12
915
FTPA31 PHFO 270535
TAFSTU
TAF
NSTU 270535Z 2706/2806 12015KT P6SM SCT018 SCT040=

USA.gov is the U.S. government's official web portal to all federal, state and local government web resources and services.